Time;durP1;ratioP1;P1;durP2;ratioP2;P2;SDS_P1;SDS_P2;PMS_P1;PMS_P2;Temp;Humidity;BMP_temperature;BMP_pressure;BME280_temperature;BME280_humidity;BME280_pressure;Samples;Min_cycle;Max_cycle;Signal;HPM_P1;HPM_P2
2021/11/02 00:02:01;;;;;;;;;;;358.40;1638.40;;;;;;5114490;28;19934;-63
2021/11/02 00:04:27;;;;;;;;;;;358.40;1664.00;;;;;;5114373;28;19903;-63
2021/11/02 00:06:53;;;;;;;;;;;358.40;1664.00;;;;;;5114237;28;19908;-63
2021/11/02 00:09:21;;;;;;;;;;;358.40;1638.40;;;;;;5114365;28;19918;-63
2021/11/02 00:11:47;;;;;;;;;;;358.40;1638.40;;;;;;5114231;28;19908;-63
2021/11/02 00:14:14;;;;;;;;;;;358.40;1638.40;;;;;;5095528;28;20014;-64
2021/11/02 00:16:40;;;;;;;;;;;358.40;1638.40;;;;;;5114161;28;19911;-63
2021/11/02 00:19:07;;;;;;;;;;;358.40;1664.00;;;;;;5113929;28;19907;-63
2021/11/02 00:21:45;;;;;;;;;;;358.40;1638.40;;;;;;5114653;28;20005;-64
2021/11/02 00:24:16;;;;;;;;;;;358.40;1638.40;;;;;;5114250;28;20288;-63
2021/11/02 00:26:43;;;;;;;;;;;358.40;1638.40;;;;;;5114185;28;19910;-63
2021/11/02 00:29:08;;;;;;;;;;;358.40;1638.40;;;;;;5114107;28;20357;-63
2021/11/02 00:31:35;;;;;;;;;;;333.70;1638.40;;;;;;5114164;28;19903;-63
2021/11/02 00:34:01;;;;;;;;;;;358.40;1638.40;;;;;;5114005;28;19908;-64
2021/11/02 00:36:26;;;;;;;;;;;333.70;1638.40;;;;;;5118162;28;19986;-63
2021/11/02 00:38:52;;;;;;;;;;;333.70;1638.40;;;;;;5117774;28;19904;-64
2021/11/02 00:41:18;;;;;;;;;;;333.70;1638.40;;;;;;5118236;28;19929;-63
2021/11/02 00:43:44;;;;;;;;;;;333.70;1638.40;;;;;;5117991;28;19904;-63
2021/11/02 00:46:10;;;;;;;;;;;333.70;1638.40;;;;;;5117953;28;19908;-63
2021/11/02 00:48:35;;;;;;;;;;;333.70;1638.40;;;;;;5117512;28;19957;-63
2021/11/02 00:51:01;;;;;;;;;;;333.70;1638.40;;;;;;5117758;28;19912;-64
2021/11/02 00:53:27;;;;;;;;;;;333.70;1638.40;;;;;;5117781;28;19910;-63
2021/11/02 00:55:52;;;;;;;;;;;333.70;1638.40;;;;;;5117975;28;19986;-63
2021/11/02 00:58:21;;;;;;;;;;;333.70;1638.40;;;;;;5117824;28;19903;-63
2021/11/02 01:00:46;;;;;;;;;;;333.70;1638.40;;;;;;5118038;28;19904;-63
2021/11/02 01:03:12;;;;;;;;;;;333.70;1612.80;;;;;;5117642;28;19911;-63
2021/11/02 01:05:38;;;;;;;;;;;333.70;1638.40;;;;;;5117536;28;19904;-63
2021/11/02 01:08:04;;;;;;;;;;;333.70;1638.40;;;;;;5117297;28;19911;-63
2021/11/02 01:10:30;;;;;;;;;;;333.70;1638.40;;;;;;5117382;28;19984;-63
2021/11/02 01:12:55;;;;;;;;;;;333.70;1638.40;;;;;;5099195;28;19930;-63
2021/11/02 01:15:23;;;;;;;;;;;333.70;1638.40;;;;;;5117546;28;19911;-63
2021/11/02 01:17:49;;;;;;;;;;;333.70;1638.40;;;;;;5117251;28;19957;-63
2021/11/02 01:20:15;;;;;;;;;;;333.60;1638.40;;;;;;5117208;28;19904;-63
2021/11/02 01:22:42;;;;;;;;;;;333.60;1638.40;;;;;;5117265;28;19931;-63
2021/11/02 01:25:08;;;;;;;;;;;333.60;1638.40;;;;;;5117246;28;19908;-63
2021/11/02 01:27:34;;;;;;;;;;;333.60;1638.40;;;;;;5117649;28;20323;-63
2021/11/02 01:30:00;;;;;;;;;;;333.60;1638.40;;;;;;5116989;28;19937;-63
2021/11/02 01:32:26;;;;;;;;;;;333.60;1638.40;;;;;;5098785;28;20349;-63
2021/11/02 01:34:51;;;;;;;;;;;333.60;1638.40;;;;;;5116808;28;19911;-63
2021/11/02 01:37:17;;;;;;;;;;;333.60;1664.00;;;;;;5117367;28;19904;-63
2021/11/02 01:39:42;;;;;;;;;;;333.60;1664.00;;;;;;5097778;28;20333;-63
2021/11/02 01:42:08;;;;;;;;;;;333.60;1664.00;;;;;;5116820;28;19977;-63
2021/11/02 01:44:34;;;;;;;;;;;333.60;1664.00;;;;;;5116622;28;19994;-63
2021/11/02 01:46:59;;;;;;;;;;;333.60;1664.00;;;;;;5115858;28;20349;-63
2021/11/02 01:49:25;;;;;;;;;;;333.50;1664.00;;;;;;5116500;28;19912;-63
2021/11/02 01:51:50;;;;;;;;;;;333.60;1664.00;;;;;;5116680;28;19960;-63
2021/11/02 01:54:18;;;;;;;;;;;333.60;1664.00;;;;;;5116695;28;19910;-63
2021/11/02 01:56:48;;;;;;;;;;;333.60;1664.00;;;;;;5116795;28;20250;-63
2021/11/02 01:59:14;;;;;;;;;;;333.60;1664.00;;;;;;5116338;28;20404;-63
2021/11/02 02:01:49;;;;;;;;;;;333.60;1664.00;;;;;;5116672;28;19947;-63
2021/11/02 02:04:33;;;;;;;;;;;333.60;1664.00;;;;;;5116395;28;19904;-63
2021/11/02 02:07:03;;;;;;;;;;;333.60;1664.00;;;;;;5116462;28;19907;-63
2021/11/02 02:09:34;;;;;;;;;;;333.60;1664.00;;;;;;5116281;28;20018;-63
2021/11/02 02:11:59;;;;;;;;;;;333.60;1664.00;;;;;;5116371;28;19904;-63
2021/11/02 02:14:44;;;;;;;;;;;333.60;1664.00;;;;;;5116022;28;19903;-63
2021/11/02 02:17:16;;;;;;;;;;;333.60;1638.40;;;;;;5116217;28;20380;-63
2021/11/02 02:19:46;;;;;;;;;;;333.60;1664.00;;;;;;5116011;28;20338;-63
2021/11/02 02:22:11;;;;;;;;;;;333.60;1664.00;;;;;;5116314;28;19922;-63
2021/11/02 02:24:37;;;;;;;;;;;333.60;1664.00;;;;;;5115905;28;19904;-63
2021/11/02 02:27:19;;;;;;;;;;;333.50;1664.00;;;;;;5097447;28;19954;-63
2021/11/02 02:29:45;;;;;;;;;;;333.50;1664.00;;;;;;5097175;28;19956;-63
2021/11/02 02:32:16;;;;;;;;;;;333.50;1664.00;;;;;;5115870;28;19908;-63
2021/11/02 02:34:49;;;;;;;;;;;333.60;1664.00;;;;;;5115781;28;19972;-63
2021/11/02 02:37:16;;;;;;;;;;;333.60;1664.00;;;;;;5116305;28;19911;-63
2021/11/02 02:39:42;;;;;;;;;;;333.60;1689.60;;;;;;5115605;28;19904;-64
2021/11/02 02:42:08;;;;;;;;;;;333.60;1689.60;;;;;;5115981;28;20341;-63
2021/11/02 02:44:34;;;;;;;;;;;333.60;1689.60;;;;;;5115506;28;19911;-63
2021/11/02 02:47:00;;;;;;;;;;;333.70;1689.60;;;;;;5115569;28;19923;-63
2021/11/02 02:49:26;;;;;;;;;;;333.70;1689.60;;;;;;5115251;28;19912;-63
2021/11/02 02:51:53;;;;;;;;;;;333.60;1689.60;;;;;;5115571;28;19911;-63
2021/11/02 02:54:21;;;;;;;;;;;333.60;1689.60;;;;;;5115299;28;20370;-63
2021/11/02 02:56:47;;;;;;;;;;;333.70;1689.60;;;;;;5115680;28;19904;-63
2021/11/02 02:59:13;;;;;;;;;;;333.70;1689.60;;;;;;5114413;28;19949;-63
2021/11/02 03:01:39;;;;;;;;;;;333.70;1689.60;;;;;;5115649;28;19990;-63
2021/11/02 03:04:06;;;;;;;;;;;333.70;1689.60;;;;;;5115216;28;19939;-63
2021/11/02 03:06:35;;;;;;;;;;;333.70;1689.60;;;;;;5115361;28;19946;-63
2021/11/02 03:09:01;;;;;;;;;;;333.70;1689.60;;;;;;5115225;28;19908;-63
2021/11/02 03:11:28;;;;;;;;;;;333.70;1689.60;;;;;;5115066;28;19903;-63
2021/11/02 03:13:56;;;;;;;;;;;333.60;1689.60;;;;;;5115167;28;20371;-63
2021/11/02 03:16:33;;;;;;;;;;;333.60;1689.60;;;;;;5115240;28;19935;-63
2021/11/02 04:27:14;;;;;;;;;;;333.70;1817.60;;;;;;5118460;28;19908;-63
2021/11/02 05:55:28;;;;;;;;;;;333.40;1996.80;;;;;;5033929;28;19912;-63
2021/11/02 05:58:18;;;;;;;;;;;333.40;1996.80;;;;;;5034127;28;20243;-63
2021/11/02 06:09:39;;;;;;;;;;;333.40;1996.80;;;;;;4975035;28;20420;-63
2021/11/02 06:28:54;;;;;;;;;;;333.30;1996.80;;;;;;5013644;28;19940;-63
2021/11/02 06:31:32;;;;;;;;;;;333.30;1996.80;;;;;;5010869;28;19909;-65
2021/11/02 06:34:09;;;;;;;;;;;333.30;1996.80;;;;;;5002782;28;19965;-66
2021/11/02 07:15:31;;;;;;;;;;;333.50;1996.80;;;;;;4954656;29;20345;-65
2021/11/02 08:47:37;;;;;;;;;;;358.60;1996.80;;;;;;5093657;28;19923;-65
2021/11/02 08:50:04;;;;;;;;;;;358.60;1996.80;;;;;;5093978;28;20319;-65
2021/11/02 08:52:32;;;;;;;;;;;358.60;2022.40;;;;;;5075346;28;19908;-65
2021/11/02 08:54:58;;;;;;;;;;;358.60;1996.80;;;;;;5093648;28;19911;-65
2021/11/02 08:57:24;;;;;;;;;;;358.60;1996.80;;;;;;5097060;28;19904;-65
2021/11/02 08:59:50;;;;;;;;;;;358.60;1996.80;;;;;;5097458;28;20388;-65
2021/11/02 09:02:36;;;;;;;;;;;358.60;1996.80;;;;;;5097341;28;19904;-65
2021/11/02 09:05:13;;;;;;;;;;;358.60;1996.80;;;;;;5096513;28;19908;-66
2021/11/02 09:07:39;;;;;;;;;;;358.70;1996.80;;;;;;5097347;28;19936;-65
2021/11/02 09:10:12;;;;;;;;;;;358.70;1996.80;;;;;;5097349;28;19919;-65
2021/11/02 09:12:40;;;;;;;;;;;358.70;1996.80;;;;;;5097101;28;19908;-65
2021/11/02 09:15:07;;;;;;;;;;;358.80;1996.80;;;;;;5097303;28;19904;-65
2021/11/02 09:17:33;;;;;;;;;;;358.80;2022.40;;;;;;5078490;28;19911;-65
2021/11/02 09:20:03;;;;;;;;;;;358.80;2022.40;;;;;;5096898;28;19904;-66
2021/11/02 09:22:30;;;;;;;;;;;358.80;2048.00;;;;;;5097062;28;19904;-65
2021/11/02 09:24:56;;;;;;;;;;;358.80;2022.40;;;;;;5097005;28;19991;-65
2021/11/02 09:27:24;;;;;;;;;;;358.80;2022.40;;;;;;5097108;28;19904;-65
2021/11/02 09:29:50;;;;;;;;;;;358.80;2022.40;;;;;;5096814;28;19912;-65
2021/11/02 09:32:16;;;;;;;;;;;358.80;2022.40;;;;;;5096827;28;19904;-65
2021/11/02 09:34:42;;;;;;;;;;;358.80;2048.00;;;;;;5096730;28;19952;-65
2021/11/02 09:37:16;;;;;;;;;;;358.80;2048.00;;;;;;5096919;28;19911;-65
2021/11/02 09:39:44;;;;;;;;;;;358.80;2048.00;;;;;;5096707;28;20395;-65
2021/11/02 09:42:18;;;;;;;;;;;358.80;2048.00;;;;;;5078727;28;19910;-65
2021/11/02 09:44:54;;;;;;;;;;;358.80;2048.00;;;;;;5096577;28;19904;-65
2021/11/02 09:47:23;;;;;;;;;;;358.80;2073.60;;;;;;5096540;28;20262;-66
2021/11/02 09:50:00;;;;;;;;;;;358.80;2073.60;;;;;;5096421;28;20007;-65
2021/11/02 09:52:36;;;;;;;;;;;358.80;2073.60;;;;;;5096537;28;19935;-65
2021/11/02 09:55:08;;;;;;;;;;;358.80;2048.00;;;;;;5096601;28;19904;-65
2021/11/02 09:57:52;;;;;;;;;;;358.80;2048.00;;;;;;5096460;28;19912;-65
2021/11/02 10:00:24;;;;;;;;;;;358.80;2048.00;;;;;;5096358;28;19911;-65
2021/11/02 10:02:51;;;;;;;;;;;358.70;2048.00;;;;;;5078013;28;19904;-65
2021/11/02 10:05:22;;;;;;;;;;;358.70;2073.60;;;;;;5096429;28;19926;-65
2021/11/02 10:08:01;;;;;;;;;;;358.70;2073.60;;;;;;5095388;28;20003;-65
2021/11/02 10:10:44;;;;;;;;;;;358.80;2073.60;;;;;;5095993;28;19957;-65
2021/11/02 10:13:25;;;;;;;;;;;358.70;2099.20;;;;;;5077056;28;19907;-65
2021/11/02 10:15:58;;;;;;;;;;;358.70;2099.20;;;;;;5077733;28;19954;-65
2021/11/02 10:18:42;;;;;;;;;;;358.70;2099.20;;;;;;5077629;28;19949;-65
2021/11/02 10:21:26;;;;;;;;;;;358.80;2099.20;;;;;;5077451;28;20327;-65
2021/11/02 10:24:10;;;;;;;;;;;358.80;2099.20;;;;;;5095873;28;19908;-65
2021/11/02 10:26:41;;;;;;;;;;;358.80;2099.20;;;;;;5096003;28;19954;-65
2021/11/02 10:29:34;;;;;;;;;;;358.80;2073.60;;;;;;5095725;28;20049;-65
2021/11/02 10:32:01;;;;;;;;;;;358.80;2073.60;;;;;;5077557;28;19911;-65
2021/11/02 10:34:41;;;;;;;;;;;358.90;2073.60;;;;;;5095600;28;19904;-65
2021/11/02 10:37:22;;;;;;;;;;;358.90;2073.60;;;;;;5095573;28;20258;-65
2021/11/02 10:40:15;;;;;;;;;;;358.90;2073.60;;;;;;5076687;28;19929;-65
2021/11/02 10:42:48;;;;;;;;;;;358.90;2073.60;;;;;;5094690;28;20365;-65
2021/11/02 10:45:19;;;;;;;;;;;358.90;2073.60;;;;;;5095218;28;19939;-65
2021/11/02 10:48:20;;;;;;;;;;;358.90;2073.60;;;;;;5095226;28;20280;-65
2021/11/02 10:50:47;;;;;;;;;;;358.90;2048.00;;;;;;4993786;28;19940;-66
2021/11/02 10:53:21;;;;;;;;;;;358.90;2073.60;;;;;;4977471;28;19974;-66
2021/11/02 10:55:52;;;;;;;;;;;359.00;2073.60;;;;;;4993567;28;20388;-65
2021/11/02 10:58:17;;;;;;;;;;;358.90;2073.60;;;;;;4976828;28;19910;-65
2021/11/02 11:00:46;;;;;;;;;;;359.00;2099.20;;;;;;4993922;28;20097;-65
2021/11/02 11:03:13;;;;;;;;;;;359.00;2099.20;;;;;;5002490;28;19944;-65
2021/11/02 11:05:39;;;;;;;;;;;359.10;2124.80;;;;;;4982021;28;19906;-65
2021/11/02 11:08:05;;;;;;;;;;;359.20;2150.40;;;;;;4993375;28;20030;-65
2021/11/02 11:10:31;;;;;;;;;;;359.30;2124.80;;;;;;4993205;28;19921;-65
2021/11/02 11:12:59;;;;;;;;;;;359.30;2124.80;;;;;;4993289;28;20359;-65
2021/11/02 11:15:28;;;;;;;;;;;384.10;2124.80;;;;;;5001687;28;19932;-65
2021/11/02 11:17:54;;;;;;;;;;;384.10;2124.80;;;;;;4997668;28;19912;-66
2021/11/02 11:20:21;;;;;;;;;;;384.30;2124.80;;;;;;4976154;28;20000;-66
2021/11/02 11:22:48;;;;;;;;;;;384.40;2124.80;;;;;;4993089;28;19906;-66
2021/11/02 11:25:16;;;;;;;;;;;384.50;2124.80;;;;;;5050870;28;19931;-66
2021/11/02 11:27:46;;;;;;;;;;;384.50;2099.20;;;;;;5074520;28;19915;-66
2021/11/02 11:30:11;;;;;;;;;;;384.70;2073.60;;;;;;5074395;28;19916;-66
2021/11/02 11:32:38;;;;;;;;;;;384.70;2073.60;;;;;;5084189;28;20274;-65
2021/11/02 11:35:04;;;;;;;;;;;384.90;2099.20;;;;;;5079132;28;19915;-66
2021/11/02 11:37:35;;;;;;;;;;;384.90;2073.60;;;;;;5074472;28;19908;-66
2021/11/02 11:40:05;;;;;;;;;;;409.60;2073.60;;;;;;5075737;28;19914;-65
2021/11/02 11:42:31;;;;;;;;;;;409.60;2073.60;;;;;;5078999;28;19953;-65
2021/11/02 11:44:59;;;;;;;;;;;409.70;2073.60;;;;;;5092428;28;19911;-65
2021/11/02 11:47:25;;;;;;;;;;;409.80;2073.60;;;;;;5095833;28;20388;-65
2021/11/02 11:49:52;;;;;;;;;;;409.90;2073.60;;;;;;5076309;28;19912;-66
2021/11/02 11:52:24;;;;;;;;;;;410.00;2048.00;;;;;;5092050;28;19904;-66
2021/11/02 11:54:51;;;;;;;;;;;410.00;2048.00;;;;;;5073521;28;19931;-66
2021/11/02 11:57:29;;;;;;;;;;;410.10;2048.00;;;;;;5096376;28;19904;-66
2021/11/02 12:00:03;;;;;;;;;;;410.10;2022.40;;;;;;5093424;28;19938;-65
2021/11/02 12:02:32;;;;;;;;;;;410.20;2022.40;;;;;;5089841;28;19916;-65
2021/11/02 12:05:01;;;;;;;;;;;410.30;2048.00;;;;;;5090803;28;19908;-66
2021/11/02 12:07:29;;;;;;;;;;;410.30;2022.40;;;;;;5092836;28;19904;-66
2021/11/02 12:10:01;;;;;;;;;;;410.40;2048.00;;;;;;5095113;28;19964;-66
2021/11/02 12:12:27;;;;;;;;;;;410.40;2048.00;;;;;;5092710;28;20050;-66
2021/11/02 12:14:54;;;;;;;;;;;410.50;2022.40;;;;;;5090806;28;20002;-66
2021/11/02 12:17:20;;;;;;;;;;;410.50;2022.40;;;;;;5074336;28;20035;-66
2021/11/02 12:19:53;;;;;;;;;;;410.50;1996.80;;;;;;5094597;28;19904;-67
2021/11/02 12:22:24;;;;;;;;;;;410.50;2022.40;;;;;;5093428;28;19904;-66
2021/11/02 12:24:59;;;;;;;;;;;435.20;1996.80;;;;;;5091578;28;19907;-67
2021/11/02 12:27:35;;;;;;;;;;;435.20;2022.40;;;;;;5091653;28;19949;-66
2021/11/02 12:30:05;;;;;;;;;;;435.20;2022.40;;;;;;5091441;28;19915;-66
2021/11/02 12:32:32;;;;;;;;;;;435.20;2022.40;;;;;;5097667;28;20298;-66
2021/11/02 12:35:10;;;;;;;;;;;435.30;2022.40;;;;;;5093596;28;19908;-66
2021/11/02 12:37:49;;;;;;;;;;;435.30;2022.40;;;;;;5093845;28;19904;-66
2021/11/02 12:40:21;;;;;;;;;;;435.30;1996.80;;;;;;5094082;28;19916;-66
2021/11/02 12:42:47;;;;;;;;;;;435.40;1996.80;;;;;;5093622;28;19917;-65
2021/11/02 12:45:12;;;;;;;;;;;435.40;1996.80;;;;;;5097980;28;19911;-65
2021/11/02 12:47:38;;;;;;;;;;;435.30;1996.80;;;;;;5096012;28;19924;-65
2021/11/02 12:50:06;;;;;;;;;;;435.40;1996.80;;;;;;5093977;28;19927;-66
2021/11/02 12:52:33;;;;;;;;;;;435.30;1996.80;;;;;;5095591;28;19957;-66
2021/11/02 12:55:08;;;;;;;;;;;435.30;1996.80;;;;;;5093880;28;19907;-66
2021/11/02 12:57:38;;;;;;;;;;;435.30;2022.40;;;;;;5095702;28;19908;-66
2021/11/02 13:00:06;;;;;;;;;;;435.30;1996.80;;;;;;5098084;28;19907;-66
2021/11/02 13:02:36;;;;;;;;;;;435.30;1971.20;;;;;;5096246;28;20342;-66
2021/11/02 13:05:06;;;;;;;;;;;435.30;1971.20;;;;;;5080750;28;20356;-65
2021/11/02 13:07:36;;;;;;;;;;;435.20;1945.60;;;;;;5095564;28;19995;-66
2021/11/02 13:10:03;;;;;;;;;;;435.30;1920.00;;;;;;5093686;28;19966;-66
2021/11/02 13:12:29;;;;;;;;;;;435.20;1920.00;;;;;;5095025;28;19935;-65
2021/11/02 13:15:04;;;;;;;;;;;435.20;1894.40;;;;;;5076677;28;19908;-65
2021/11/02 13:17:40;;;;;;;;;;;410.50;1894.40;;;;;;5098436;28;19908;-65
2021/11/02 13:20:07;;;;;;;;;;;410.50;1894.40;;;;;;5094929;28;19904;-66
2021/11/02 13:22:33;;;;;;;;;;;410.40;1868.80;;;;;;5098155;28;19927;-65
2021/11/02 13:25:04;;;;;;;;;;;410.40;1894.40;;;;;;5094288;28;20358;-65
2021/11/02 13:27:38;;;;;;;;;;;410.40;1894.40;;;;;;5093866;28;19914;-65
2021/11/02 13:30:23;;;;;;;;;;;410.40;1920.00;;;;;;5094810;28;20258;-66
2021/11/02 13:33:02;;;;;;;;;;;410.40;1920.00;;;;;;5076219;28;19904;-65
2021/11/02 13:35:41;;;;;;;;;;;410.40;1920.00;;;;;;5094221;28;19910;-65
2021/11/02 13:38:25;;;;;;;;;;;410.40;1894.40;;;;;;5095072;28;19972;-65
2021/11/02 13:40:52;;;;;;;;;;;410.40;1894.40;;;;;;5094664;28;19919;-65
2021/11/02 13:43:25;;;;;;;;;;;410.30;1920.00;;;;;;5095732;28;19904;-66
2021/11/02 13:45:52;;;;;;;;;;;410.40;1894.40;;;;;;5097496;28;19912;-65
2021/11/02 13:48:18;;;;;;;;;;;410.30;1894.40;;;;;;5093384;28;19917;-65
2021/11/02 13:50:45;;;;;;;;;;;410.30;1894.40;;;;;;5078729;28;20285;-66
2021/11/02 13:53:10;;;;;;;;;;;410.30;1868.80;;;;;;5095999;28;19904;-68
2021/11/02 13:55:36;;;;;;;;;;;410.30;1894.40;;;;;;5096276;28;19904;-66
2021/11/02 13:58:02;;;;;;;;;;;410.40;1894.40;;;;;;5077751;28;20307;-66
2021/11/02 14:00:27;;;;;;;;;;;410.30;1894.40;;;;;;5096536;28;19912;-67
2021/11/02 14:02:54;;;;;;;;;;;410.20;1894.40;;;;;;5096452;28;19904;-66
2021/11/02 14:05:19;;;;;;;;;;;410.20;1894.40;;;;;;5096015;28;19908;-66
2021/11/02 14:07:45;;;;;;;;;;;410.10;1894.40;;;;;;5077368;28;19911;-67
2021/11/02 14:10:11;;;;;;;;;;;410.00;1894.40;;;;;;5096016;28;19912;-66
2021/11/02 14:12:53;;;;;;;;;;;410.10;1920.00;;;;;;5095870;28;19904;-66
2021/11/02 14:15:23;;;;;;;;;;;410.10;1920.00;;;;;;5095974;28;20262;-66
2021/11/02 14:17:51;;;;;;;;;;;410.00;1920.00;;;;;;5096372;28;19910;-67
2021/11/02 14:20:40;;;;;;;;;;;410.00;1920.00;;;;;;5096015;28;19999;-66
2021/11/02 14:23:15;;;;;;;;;;;409.90;1920.00;;;;;;4994412;28;20253;-66
2021/11/02 14:25:41;;;;;;;;;;;409.90;1920.00;;;;;;4993621;28;19905;-66
2021/11/02 14:28:07;;;;;;;;;;;409.80;1920.00;;;;;;4994264;28;20005;-67
2021/11/02 14:30:33;;;;;;;;;;;409.80;1945.60;;;;;;4994039;28;20282;-66
2021/11/02 14:32:59;;;;;;;;;;;409.80;1945.60;;;;;;4994116;28;19905;-66
2021/11/02 14:35:35;;;;;;;;;;;409.80;1945.60;;;;;;4994246;28;19945;-67
2021/11/02 14:38:07;;;;;;;;;;;409.70;1920.00;;;;;;4994023;28;19917;-67
2021/11/02 14:40:33;;;;;;;;;;;409.60;1894.40;;;;;;4977380;28;19906;-66
2021/11/02 14:42:59;;;;;;;;;;;384.90;1868.80;;;;;;4993918;28;20406;-66
2021/11/02 14:45:41;;;;;;;;;;;384.80;1894.40;;;;;;4993861;28;20360;-66
2021/11/02 14:48:25;;;;;;;;;;;384.70;1868.80;;;;;;4993503;28;20021;-66
2021/11/02 14:51:01;;;;;;;;;;;384.70;1868.80;;;;;;4993713;28;19957;-67
2021/11/02 14:53:30;;;;;;;;;;;384.60;1868.80;;;;;;4993581;28;19927;-66
2021/11/02 14:55:56;;;;;;;;;;;384.50;1868.80;;;;;;4977194;28;20311;-66
2021/11/02 14:58:42;;;;;;;;;;;384.40;1868.80;;;;;;4993712;28;19916;-66
2021/11/02 15:01:18;;;;;;;;;;;384.40;1868.80;;;;;;5088632;28;19939;-66
2021/11/02 15:03:51;;;;;;;;;;;384.30;1868.80;;;;;;5095110;28;19987;-66
2021/11/02 15:06:17;;;;;;;;;;;384.20;1868.80;;;;;;5095223;28;20357;-66
2021/11/02 15:08:43;;;;;;;;;;;384.20;1868.80;;;;;;5095264;28;19904;-66
2021/11/02 15:11:10;;;;;;;;;;;384.10;1868.80;;;;;;5076659;28;20419;-66
2021/11/02 15:13:39;;;;;;;;;;;384.10;1868.80;;;;;;5095068;28;19999;-66
2021/11/02 15:16:06;;;;;;;;;;;384.00;1894.40;;;;;;5094818;28;19908;-66
2021/11/02 15:18:40;;;;;;;;;;;384.00;1894.40;;;;;;5094601;28;19908;-66
2021/11/02 15:21:06;;;;;;;;;;;384.00;1894.40;;;;;;5094785;28;20357;-66
2021/11/02 15:23:39;;;;;;;;;;;359.30;1894.40;;;;;;5094854;28;19908;-66
2021/11/02 15:26:05;;;;;;;;;;;359.30;1894.40;;;;;;5094842;28;19949;-66
2021/11/02 15:28:38;;;;;;;;;;;359.30;1894.40;;;;;;5094587;28;20002;-66
2021/11/02 15:31:04;;;;;;;;;;;359.30;1894.40;;;;;;5075587;28;20002;-66
2021/11/02 15:33:32;;;;;;;;;;;359.20;1920.00;;;;;;5094391;28;19908;-66
2021/11/02 15:36:19;;;;;;;;;;;359.20;1920.00;;;;;;5094873;28;19947;-66
2021/11/02 15:39:01;;;;;;;;;;;359.20;1920.00;;;;;;5094558;28;20017;-66
2021/11/02 15:41:27;;;;;;;;;;;359.20;1920.00;;;;;;5094420;28;19904;-66
2021/11/02 15:43:53;;;;;;;;;;;359.10;1920.00;;;;;;5094593;28;19904;-66
2021/11/02 15:46:21;;;;;;;;;;;359.10;1920.00;;;;;;5094424;28;19904;-66
2021/11/02 15:48:47;;;;;;;;;;;359.10;1945.60;;;;;;5093943;28;19908;-66
2021/11/02 15:51:15;;;;;;;;;;;359.10;1920.00;;;;;;5094286;28;19912;-66
2021/11/02 15:53:41;;;;;;;;;;;359.10;1945.60;;;;;;5093909;28;19950;-66
2021/11/02 15:56:07;;;;;;;;;;;359.10;1920.00;;;;;;5094320;28;19904;-66
2021/11/02 15:58:35;;;;;;;;;;;359.10;1945.60;;;;;;5075936;28;19910;-66
2021/11/02 16:01:01;;;;;;;;;;;359.10;1920.00;;;;;;5094073;28;19904;-66
2021/11/02 16:03:33;;;;;;;;;;;359.00;1920.00;;;;;;5094054;28;19904;-66
2021/11/02 16:05:58;;;;;;;;;;;359.00;1920.00;;;;;;5093340;28;20365;-66
2021/11/02 16:08:24;;;;;;;;;;;359.00;1920.00;;;;;;5094324;28;20123;-66
2021/11/02 16:10:50;;;;;;;;;;;359.00;1920.00;;;;;;5094199;28;19912;-66
2021/11/02 16:13:16;;;;;;;;;;;359.00;1920.00;;;;;;5094201;28;19907;-66
2021/11/02 16:15:43;;;;;;;;;;;359.00;1920.00;;;;;;5094063;28;19916;-66
2021/11/02 16:18:25;;;;;;;;;;;359.00;1920.00;;;;;;5094129;28;19911;-66
2021/11/02 16:20:57;;;;;;;;;;;359.00;1920.00;;;;;;5094098;28;19908;-66
2021/11/02 16:23:24;;;;;;;;;;;358.90;1920.00;;;;;;5094146;28;19904;-66
2021/11/02 16:25:51;;;;;;;;;;;358.90;1920.00;;;;;;5094128;28;19904;-66
2021/11/02 16:28:18;;;;;;;;;;;358.90;1920.00;;;;;;5093911;28;20441;-66
2021/11/02 16:30:45;;;;;;;;;;;358.90;1920.00;;;;;;5093849;28;19919;-66
2021/11/02 16:33:11;;;;;;;;;;;358.90;1945.60;;;;;;5094191;28;19904;-66
2021/11/02 16:35:39;;;;;;;;;;;358.90;1945.60;;;;;;5093605;28;19911;-66
2021/11/02 16:38:23;;;;;;;;;;;358.90;1945.60;;;;;;5094060;28;19904;-66
2021/11/02 16:40:50;;;;;;;;;;;358.90;1945.60;;;;;;5093882;28;19908;-66
2021/11/02 16:43:22;;;;;;;;;;;358.90;1920.00;;;;;;5093722;28;19904;-65
2021/11/02 16:45:49;;;;;;;;;;;359.00;1945.60;;;;;;5068038;28;19950;-65
2021/11/02 16:48:15;;;;;;;;;;;358.90;1945.60;;;;;;5093206;28;19916;-64
2021/11/02 16:50:40;;;;;;;;;;;358.90;1945.60;;;;;;5093912;28;20373;-64
2021/11/02 16:53:16;;;;;;;;;;;358.90;1945.60;;;;;;5093500;28;19943;-65
2021/11/02 16:55:44;;;;;;;;;;;358.90;1945.60;;;;;;5093996;28;19908;-65
2021/11/02 16:58:20;;;;;;;;;;;358.90;1945.60;;;;;;5093348;28;20407;-65
2021/11/02 17:00:46;;;;;;;;;;;358.90;1945.60;;;;;;5093404;28;19904;-65
2021/11/02 17:03:14;;;;;;;;;;;358.80;1945.60;;;;;;5093451;28;19943;-65
2021/11/02 17:05:40;;;;;;;;;;;358.80;1945.60;;;;;;5093971;28;19904;-65
2021/11/02 17:08:09;;;;;;;;;;;358.80;1920.00;;;;;;5092421;28;20025;-65
2021/11/02 17:10:55;;;;;;;;;;;358.80;1894.40;;;;;;5077220;28;19912;-65
2021/11/02 17:13:24;;;;;;;;;;;358.80;1868.80;;;;;;5090908;28;19910;-65
2021/11/02 17:15:49;;;;;;;;;;;358.70;1894.40;;;;;;5091290;28;20285;-65
2021/11/02 17:18:25;;;;;;;;;;;358.70;1894.40;;;;;;5093566;28;19912;-65
2021/11/02 17:21:07;;;;;;;;;;;358.70;1868.80;;;;;;5095369;28;19910;-65
2021/11/02 17:23:33;;;;;;;;;;;358.60;1868.80;;;;;;5093615;28;19912;-65
2021/11/02 17:25:59;;;;;;;;;;;358.60;1868.80;;;;;;5096304;28;20357;-65
2021/11/02 17:28:25;;;;;;;;;;;358.60;1843.20;;;;;;5095821;28;19904;-65
2021/11/02 17:30:51;;;;;;;;;;;358.60;1868.80;;;;;;5093304;28;19920;-65
2021/11/02 17:33:18;;;;;;;;;;;358.50;1868.80;;;;;;5097024;28;20337;-65
2021/11/02 17:35:45;;;;;;;;;;;358.50;1868.80;;;;;;5095536;28;20373;-65
2021/11/02 17:38:12;;;;;;;;;;;358.50;1843.20;;;;;;5080494;28;19965;-65
2021/11/02 17:40:38;;;;;;;;;;;358.40;1868.80;;;;;;5116106;28;19942;-63
2021/11/02 17:43:04;;;;;;;;;;;358.50;1868.80;;;;;;5116462;28;19908;-63
2021/11/02 17:45:30;;;;;;;;;;;358.50;1843.20;;;;;;5098209;28;20365;-63
2021/11/02 17:47:56;;;;;;;;;;;358.40;1843.20;;;;;;5116402;28;19939;-63
2021/11/02 17:50:26;;;;;;;;;;;358.40;1843.20;;;;;;5116692;28;19922;-63
2021/11/02 17:52:53;;;;;;;;;;;333.70;1817.60;;;;;;5078531;28;19913;-63
2021/11/02 17:55:19;;;;;;;;;;;333.70;1843.20;;;;;;5076027;28;20421;-63
2021/11/02 17:57:45;;;;;;;;;;;333.60;1843.20;;;;;;5075853;28;19904;-63
2021/11/02 18:00:12;;;;;;;;;;;333.60;1843.20;;;;;;5074422;28;19904;-63
2021/11/02 18:02:38;;;;;;;;;;;333.60;1843.20;;;;;;5075928;28;19905;-63
2021/11/02 18:05:04;;;;;;;;;;;333.60;1843.20;;;;;;5075795;28;19981;-63
2021/11/02 18:07:31;;;;;;;;;;;333.50;1843.20;;;;;;5075583;28;19916;-63
2021/11/02 18:09:57;;;;;;;;;;;333.50;1843.20;;;;;;5075597;28;20366;-63
2021/11/02 18:12:23;;;;;;;;;;;333.60;1868.80;;;;;;5074911;28;19904;-63
2021/11/02 18:14:49;;;;;;;;;;;333.50;1843.20;;;;;;5095664;28;19908;-63
2021/11/02 18:17:16;;;;;;;;;;;333.50;1843.20;;;;;;5116336;28;19910;-63
2021/11/02 18:19:44;;;;;;;;;;;333.50;1843.20;;;;;;5116084;28;19910;-63
2021/11/02 18:22:10;;;;;;;;;;;333.50;1843.20;;;;;;5115982;28;20370;-63
2021/11/02 18:24:36;;;;;;;;;;;333.50;1843.20;;;;;;5115938;28;19973;-63
2021/11/02 18:27:02;;;;;;;;;;;333.40;1817.60;;;;;;5115818;28;20288;-63
2021/11/02 18:29:30;;;;;;;;;;;333.40;1843.20;;;;;;5115197;28;19911;-63
2021/11/02 18:31:56;;;;;;;;;;;333.40;1817.60;;;;;;5115093;28;19907;-63
2021/11/02 18:34:22;;;;;;;;;;;333.40;1817.60;;;;;;5092767;28;19919;-63
2021/11/02 18:36:48;;;;;;;;;;;333.40;1817.60;;;;;;5074989;28;19995;-63
2021/11/02 18:39:14;;;;;;;;;;;333.30;1817.60;;;;;;5075116;28;20359;-63
2021/11/02 18:41:40;;;;;;;;;;;333.30;1843.20;;;;;;5075165;28;19904;-62
2021/11/02 18:44:06;;;;;;;;;;;333.30;1843.20;;;;;;5074590;28;19904;-63
2021/11/02 18:46:31;;;;;;;;;;;333.30;1868.80;;;;;;5080082;28;19920;-63
2021/11/02 18:48:57;;;;;;;;;;;333.30;1868.80;;;;;;5074707;28;19911;-63
2021/11/02 18:51:23;;;;;;;;;;;333.20;1868.80;;;;;;5073309;28;20320;-66
2021/11/02 18:53:48;;;;;;;;;;;333.30;1843.20;;;;;;5075085;28;19940;-66
2021/11/02 18:56:14;;;;;;;;;;;333.30;1843.20;;;;;;5074042;28;19905;-65
2021/11/02 18:58:40;;;;;;;;;;;333.20;1843.20;;;;;;5092022;28;19908;-66
2021/11/02 19:01:06;;;;;;;;;;;333.20;1843.20;;;;;;5111030;28;20340;-66
2021/11/02 19:03:31;;;;;;;;;;;333.20;1843.20;;;;;;5095025;28;19970;-65